Time,TemperatureF,DewpointF,PressureIn,WindDirection,WindDirectionDegrees,WindSpeedMPH,WindSpeedGustMPH,Humidity,HourlyPrecipIn,Conditions,Clouds,dailyrainin,SoftwareType,DateUTC
2013-10-02 00:01:00,61.7,57.5,29.88,WSW,248,2.7,2.7,86,0.00,FEW,,0.00,WeatherDisplay:10.37,2013-10-02 04:01:00,
2013-10-02 00:02:00,61.7,57.5,29.88,SSW,202,2.7,2.7,86,0.00,FEW,,0.00,WeatherDisplay:10.37,2013-10-02 04:02:00,
2013-10-02 00:03:00,61.7,57.5,29.88,SSW,202,2.3,2.4,86,0.00,FEW,,0.00,WeatherDisplay:10.37,2013-10-02 04:03:00,
2013-10-02 00:04:00,61.7,57.5,29.88,SW,225,2.7,2.7,86,0.00,FEW,,0.00,WeatherDisplay:10.37,2013-10-02 04:04:00,
2013-10-02 00:09:00,61.9,57.7,29.88,SSW,202,3.5,3.5,86,0.00,FEW,,0.00,WeatherDisplay:10.37,2013-10-02 04:09:00,
2013-10-02 00:12:00,61.9,57.7,29.88,SSW,202,2.3,2.4,86,0.00,FEW,,0.00,WeatherDisplay:10.37,2013-10-02 04:12:00,
2013-10-02 00:17:00,61.9,57.7,29.88,SW,225,2.3,2.3,86,0.00,FEW,,0.00,WeatherDisplay:10.37,2013-10-02 04:17:00,
2013-10-02 00:22:00,61.9,57.7,29.88,SW,225,2.3,2.3,86,0.00,FEW,,0.00,WeatherDisplay:10.37,2013-10-02 04:22:00,
2013-10-02 00:27:00,61.9,57.7,29.88,SSE,158,2.3,2.3,86,0.00,FEW,,0.00,WeatherDisplay:10.37,2013-10-02 04:27:00,
2013-10-02 00:32:00,61.9,57.7,29.88,WSW,248,3.5,3.5,86,0.00,FEW,,0.00,WeatherDisplay:10.37,2013-10-02 04:32:00,
2013-10-02 00:37:00,62.1,57.9,29.88,SW,225,3.5,3.5,86,0.00,FEW,,0.00,WeatherDisplay:10.37,2013-10-02 04:37:00,
2013-10-02 00:42:00,62.2,58.0,29.88,SW,225,3.5,3.5,86,0.00,FEW,,0.00,WeatherDisplay:10.37,2013-10-02 04:42:00,
2013-10-02 00:47:00,62.2,58.0,29.88,SW,225,4.2,4.2,86,0.00,FEW,,0.00,WeatherDisplay:10.37,2013-10-02 04:47:00,
2013-10-02 00:52:00,62.2,58.0,29.88,SW,225,4.6,4.6,86,0.00,FEW,,0.00,WeatherDisplay:10.37,2013-10-02 04:52:00,
2013-10-02 00:57:00,62.4,58.2,29.88,SW,225,3.7,3.7,86,0.00,FEW,,0.00,WeatherDisplay:10.37,2013-10-02 04:57:00,
2013-10-02 01:02:00,62.4,58.2,29.88,WSW,248,3.5,3.5,86,0.00,FEW,,0.00,WeatherDisplay:10.37,2013-10-02 05:02:00,
2013-10-02 01:07:00,62.4,58.2,29.88,SW,225,3.5,3.5,86,0.00,FEW,,0.00,WeatherDisplay:10.37,2013-10-02 05:07:00,
2013-10-02 01:12:00,62.4,58.2,29.88,SW,225,3.7,3.7,86,0.00,FEW,,0.00,WeatherDisplay:10.37,2013-10-02 05:12:00,
2013-10-02 01:17:00,62.4,58.2,29.88,SSW,202,3.2,3.2,86,0.00,FEW,,0.00,WeatherDisplay:10.37,2013-10-02 05:17:00,
2013-10-02 01:22:00,62.4,58.2,29.88,SW,225,3.5,3.5,86,0.00,FEW,,0.00,WeatherDisplay:10.37,2013-10-02 05:22:00,
2013-10-02 01:27:00,62.2,58.0,29.88,WSW,248,3.5,3.5,86,0.00,FEW,,0.00,WeatherDisplay:10.37,2013-10-02 05:27:00,
2013-10-02 01:32:00,62.1,57.9,29.88,SSW,202,6.3,6.3,86,0.00,BKN,,0.00,WeatherDisplay:10.37,2013-10-02 05:32:00,
2013-10-02 01:37:00,62.1,57.9,29.88,WSW,248,2.3,2.3,86,0.00,BKN,,0.00,WeatherDisplay:10.37,2013-10-02 05:37:00,
2013-10-02 01:42:00,61.7,57.5,29.88,SW,225,2.3,2.3,86,0.00,BKN,,0.00,WeatherDisplay:10.37,2013-10-02 05:42:00,
2013-10-02 01:47:00,61.7,57.5,29.88,SW,225,3.5,3.5,86,0.00,BKN,,0.00,WeatherDisplay:10.37,2013-10-02 05:47:00,
2013-10-02 01:52:00,61.5,57.3,29.88,SW,225,2.2,2.2,86,0.00,BKN,,0.00,WeatherDisplay:10.37,2013-10-02 05:52:00,
2013-10-02 01:57:00,61.3,57.4,29.88,SSW,202,2.7,2.7,87,0.00,BKN,,0.00,WeatherDisplay:10.37,2013-10-02 05:57:00,
2013-10-02 02:02:00,61.3,57.4,29.89,SSW,202,2.3,2.3,87,0.00,CLR,,0.00,WeatherDisplay:10.37,2013-10-02 06:02:00,
2013-10-02 02:07:00,61.2,57.3,29.89,SW,225,2.3,2.3,87,0.00,CLR,,0.00,WeatherDisplay:10.37,2013-10-02 06:07:00,
2013-10-02 02:12:00,61.0,57.1,29.89,SW,225,3.5,3.5,87,0.00,CLR,,0.00,WeatherDisplay:10.37,2013-10-02 06:12:00,
2013-10-02 02:17:00,61.0,57.1,29.89,SW,225,3.5,3.5,87,0.00,CLR,,0.00,WeatherDisplay:10.37,2013-10-02 06:17:00,
2013-10-02 02:22:00,60.8,56.9,29.89,SSE,158,2.3,2.3,87,0.00,CLR,,0.00,WeatherDisplay:10.37,2013-10-02 06:22:00,
2013-10-02 02:27:00,60.6,57.0,29.89,SW,225,2.3,2.3,88,0.00,CLR,,0.00,WeatherDisplay:10.37,2013-10-02 06:27:00,
2013-10-02 02:32:00,60.4,56.8,29.89,SSW,202,4.6,4.6,88,0.00,CLR,,0.00,WeatherDisplay:10.37,2013-10-02 06:32:00,
2013-10-02 02:37:00,60.1,56.8,29.89,SW,225,2.3,0.0,89,0.00,CLR,,0.00,WeatherDisplay:10.37,2013-10-02 06:37:00,
2013-10-02 02:42:00,59.9,56.6,29.89,SSW,202,3.5,3.5,89,0.00,CLR,,0.00,WeatherDisplay:10.37,2013-10-02 06:42:00,
2013-10-02 02:47:00,59.9,56.6,29.89,SSW,202,2.3,2.3,89,0.00,CLR,,0.00,WeatherDisplay:10.37,2013-10-02 06:47:00,
2013-10-02 02:52:00,59.7,56.5,29.89,SSE,158,2.3,2.3,89,0.00,CLR,,0.00,WeatherDisplay:10.37,2013-10-02 06:52:00,
2013-10-02 02:57:00,59.5,56.6,29.89,SSW,202,2.3,2.3,90,0.00,CLR,,0.00,WeatherDisplay:10.37,2013-10-02 06:57:00,
2013-10-02 03:02:00,59.2,56.3,29.89,SSW,202,2.3,2.3,90,0.00,CLR,,0.00,WeatherDisplay:10.37,2013-10-02 07:02:00,
2013-10-02 03:07:00,59.2,56.6,29.89,WSW,248,0.0,0.0,91,0.00,CLR,,0.00,WeatherDisplay:10.37,2013-10-02 07:07:00,
2013-10-02 03:12:00,59.0,56.7,29.89,SSW,202,3.5,3.5,92,0.00,CLR,,0.00,WeatherDisplay:10.37,2013-10-02 07:12:00,
2013-10-02 03:17:00,58.8,56.5,29.89,SSW,202,3.5,3.5,92,0.00,CLR,,0.00,WeatherDisplay:10.37,2013-10-02 07:17:00,
2013-10-02 03:22:00,59.0,56.7,29.89,SSW,202,2.7,2.7,92,0.00,CLR,,0.00,WeatherDisplay:10.37,2013-10-02 07:22:00,
2013-10-02 03:27:00,58.8,56.5,29.88,SW,225,2.3,2.3,92,0.00,CLR,,0.00,WeatherDisplay:10.37,2013-10-02 07:27:00,
2013-10-02 03:32:00,58.8,56.8,29.88,SW,225,2.3,2.3,93,0.00,CLR,,0.00,WeatherDisplay:10.37,2013-10-02 07:32:00,
2013-10-02 03:37:00,58.8,56.8,29.89,SSW,202,2.7,2.7,93,0.00,CLR,,0.00,WeatherDisplay:10.37,2013-10-02 07:37:00,
2013-10-02 03:42:00,59.2,57.2,29.89,WSW,248,2.3,2.3,93,0.00,CLR,,0.00,WeatherDisplay:10.37,2013-10-02 07:42:00,
2013-10-02 03:47:00,59.2,56.9,29.89,SSW,202,2.7,2.7,92,0.00,CLR,,0.00,WeatherDisplay:10.37,2013-10-02 07:47:00,
2013-10-02 03:52:00,59.2,56.9,29.89,SW,225,2.7,2.7,92,0.00,CLR,,0.00,WeatherDisplay:10.37,2013-10-02 07:52:00,
2013-10-02 03:57:00,59.2,56.9,29.89,SSW,202,1.7,0.0,92,0.00,CLR,,0.00,WeatherDisplay:10.37,2013-10-02 07:57:00,
2013-10-02 04:02:00,59.2,56.9,29.89,South,180,3.5,3.5,92,0.00,CLR,,0.00,WeatherDisplay:10.37,2013-10-02 08:02:00,
2013-10-02 04:07:00,59.2,56.9,29.89,SSW,202,2.7,2.7,92,0.00,CLR,,0.00,WeatherDisplay:10.37,2013-10-02 08:07:00,
2013-10-02 04:12:00,59.2,56.9,29.88,SSW,202,3.5,3.5,92,0.00,CLR,,0.00,WeatherDisplay:10.37,2013-10-02 08:12:00,
2013-10-02 04:17:00,59.2,56.9,29.88,South,180,3.2,3.2,92,0.00,CLR,,0.00,WeatherDisplay:10.37,2013-10-02 08:17:00,
2013-10-02 04:22:00,59.2,56.9,29.89,SSW,202,3.2,3.2,92,0.00,CLR,,0.00,WeatherDisplay:10.37,2013-10-02 08:22:00,
2013-10-02 04:27:00,59.4,57.1,29.89,SW,225,3.5,3.5,92,0.00,CLR,,0.00,WeatherDisplay:10.37,2013-10-02 08:27:00,
2013-10-02 04:32:00,59.4,57.1,29.89,SW,225,3.5,3.5,92,0.00,CLR,,0.00,WeatherDisplay:10.37,2013-10-02 08:32:00,
2013-10-02 04:37:00,59.5,57.2,29.89,SSW,202,3.5,3.5,92,0.00,CLR,,0.00,WeatherDisplay:10.37,2013-10-02 08:37:00,
2013-10-02 04:42:00,59.5,57.2,29.89,SW,225,4.6,4.6,92,0.00,CLR,,0.00,WeatherDisplay:10.37,2013-10-02 08:42:00,
2013-10-02 04:47:00,59.5,57.2,29.89,SW,225,2.3,2.3,92,0.00,CLR,,0.00,WeatherDisplay:10.37,2013-10-02 08:47:00,
2013-10-02 04:52:00,59.5,57.2,29.89,SW,225,3.5,3.5,92,0.00,CLR,,0.00,WeatherDisplay:10.37,2013-10-02 08:52:00,
2013-10-02 04:57:00,59.5,57.2,29.89,WSW,248,2.3,2.3,92,0.00,CLR,,0.00,WeatherDisplay:10.37,2013-10-02 08:57:00,
2013-10-02 05:02:00,59.5,57.2,29.89,WSW,248,2.3,2.3,92,0.00,SCT,,0.00,WeatherDisplay:10.37,2013-10-02 09:02:00,
2013-10-02 05:07:00,59.5,57.2,29.89,SW,225,2.3,2.3,92,0.00,SCT,,0.00,WeatherDisplay:10.37,2013-10-02 09:07:00,
2013-10-02 05:12:00,59.5,57.2,29.89,SW,225,2.7,2.7,92,0.00,SCT,,0.00,WeatherDisplay:10.37,2013-10-02 09:12:00,
2013-10-02 05:17:00,59.4,57.1,29.89,SW,225,2.7,2.7,92,0.00,SCT,,0.00,WeatherDisplay:10.37,2013-10-02 09:17:00,
2013-10-02 05:22:00,59.4,57.1,29.89,SSW,202,2.7,2.7,92,0.00,SCT,,0.00,WeatherDisplay:10.37,2013-10-02 09:22:00,
2013-10-02 05:27:00,59.2,56.9,29.89,SW,225,3.5,3.5,92,0.00,SCT,,0.00,WeatherDisplay:10.37,2013-10-02 09:27:00,
2013-10-02 05:32:00,59.2,56.9,29.89,WSW,248,4.6,4.6,92,0.00,SCT,,0.00,WeatherDisplay:10.37,2013-10-02 09:32:00,
2013-10-02 05:37:00,59.0,56.7,29.89,SW,225,2.3,2.5,92,0.00,SCT,,0.00,WeatherDisplay:10.37,2013-10-02 09:37:00,
2013-10-02 05:42:00,58.8,56.8,29.89,SW,225,4.2,4.2,93,0.00,SCT,,0.00,WeatherDisplay:10.37,2013-10-02 09:42:00,
2013-10-02 05:47:00,58.8,56.8,29.89,SW,225,3.5,3.5,93,0.00,SCT,,0.00,WeatherDisplay:10.37,2013-10-02 09:47:00,
2013-10-02 05:52:00,58.5,56.5,29.89,SW,225,2.7,2.7,93,0.00,SCT,,0.00,WeatherDisplay:10.37,2013-10-02 09:52:00,
2013-10-02 05:57:00,58.5,56.5,29.89,SW,225,3.5,3.5,93,0.00,SCT,,0.00,WeatherDisplay:10.37,2013-10-02 09:57:00,
2013-10-02 06:02:00,58.5,56.5,29.89,SSW,202,3.5,3.5,93,0.00,SCT,,0.00,WeatherDisplay:10.37,2013-10-02 10:02:00,
2013-10-02 06:07:00,58.5,56.5,29.89,SSW,202,3.5,3.5,93,0.00,SCT,,0.00,WeatherDisplay:10.37,2013-10-02 10:07:00,
2013-10-02 06:12:00,58.5,56.8,29.90,SW,225,3.5,3.5,94,0.00,SCT,,0.00,WeatherDisplay:10.37,2013-10-02 10:12:00,
2013-10-02 06:17:00,58.3,56.6,29.90,SW,225,3.5,3.5,94,0.00,SCT,,0.00,WeatherDisplay:10.37,2013-10-02 10:17:00,
2013-10-02 06:22:00,58.3,56.6,29.90,West,270,4.6,4.6,94,0.00,SCT,,0.00,WeatherDisplay:10.37,2013-10-02 10:22:00,
2013-10-02 06:27:00,58.3,56.6,29.90,SSW,202,3.7,3.7,94,0.00,SCT,,0.00,WeatherDisplay:10.37,2013-10-02 10:27:00,
2013-10-02 06:32:00,58.3,56.6,29.90,SW,225,4.6,4.6,94,0.00,CLR,,0.00,WeatherDisplay:10.37,2013-10-02 10:32:00,
2013-10-02 06:37:00,58.3,56.6,29.90,SW,225,3.5,3.5,94,0.00,CLR,,0.00,WeatherDisplay:10.37,2013-10-02 10:37:00,
2013-10-02 06:42:00,58.3,56.6,29.90,SSW,202,3.5,3.5,94,0.00,CLR,,0.00,WeatherDisplay:10.37,2013-10-02 10:42:00,
2013-10-02 06:47:00,58.3,56.6,29.90,SW,225,3.5,3.5,94,0.00,CLR,,0.00,WeatherDisplay:10.37,2013-10-02 10:47:00,
2013-10-02 06:52:00,58.1,56.7,29.90,SSW,202,3.5,3.5,95,0.00,CLR,,0.00,WeatherDisplay:10.37,2013-10-02 10:52:00,
2013-10-02 06:57:00,58.1,56.7,29.90,SW,225,2.7,2.7,95,0.00,CLR,,0.00,WeatherDisplay:10.37,2013-10-02 10:57:00,
2013-10-02 07:02:00,58.1,56.7,29.90,West,270,3.5,3.5,95,0.00,FEW,,0.00,WeatherDisplay:10.37,2013-10-02 11:02:00,
2013-10-02 07:07:00,58.1,56.7,29.90,SW,225,3.5,3.5,95,0.00,FEW,,0.00,WeatherDisplay:10.37,2013-10-02 11:07:00,
2013-10-02 07:12:00,58.1,56.7,29.91,SW,225,3.5,3.5,95,0.00,FEW,,0.00,WeatherDisplay:10.37,2013-10-02 11:12:00,
2013-10-02 07:17:00,57.9,56.5,29.91,SW,225,3.5,3.5,95,0.00,FEW,,0.00,WeatherDisplay:10.37,2013-10-02 11:17:00,
2013-10-02 07:22:00,57.9,56.5,29.91,WSW,248,3.5,3.5,95,0.00,FEW,,0.00,WeatherDisplay:10.37,2013-10-02 11:22:00,
2013-10-02 07:27:00,58.1,56.7,29.91,SW,225,3.5,3.5,95,0.00,FEW,,0.00,WeatherDisplay:10.37,2013-10-02 11:27:00,
2013-10-02 07:32:00,58.1,56.7,29.91,SW,225,3.5,3.5,95,0.00,FEW,,0.00,WeatherDisplay:10.37,2013-10-02 11:32:00,
2013-10-02 07:37:00,58.3,56.9,29.91,SW,225,3.5,3.5,95,0.00,FEW,,0.00,WeatherDisplay:10.37,2013-10-02 11:37:00,
2013-10-02 07:42:00,58.3,56.9,29.91,SW,225,4.6,4.6,95,0.00,FEW,,0.00,WeatherDisplay:10.37,2013-10-02 11:42:00,
2013-10-02 07:47:00,58.3,56.9,29.91,WSW,248,3.5,3.5,95,0.00,FEW,,0.00,WeatherDisplay:10.37,2013-10-02 11:47:00,
2013-10-02 07:52:00,58.5,57.1,29.91,WSW,248,3.5,3.5,95,0.00,FEW,,0.00,WeatherDisplay:10.37,2013-10-02 11:52:00,
2013-10-02 07:57:00,58.8,57.4,29.91,WSW,248,2.7,2.7,95,0.00,FEW,,0.00,WeatherDisplay:10.37,2013-10-02 11:57:00,
2013-10-02 08:02:00,59.0,57.3,29.92,SW,225,4.2,4.2,94,0.00,BKN,,0.00,WeatherDisplay:10.37,2013-10-02 12:02:00,
2013-10-02 08:07:00,59.5,57.5,29.92,SW,225,4.6,4.6,93,0.00,BKN,,0.00,WeatherDisplay:10.37,2013-10-02 12:07:00,
2013-10-02 08:12:00,59.9,57.6,29.91,SW,225,3.7,3.7,92,0.00,BKN,,0.00,WeatherDisplay:10.37,2013-10-02 12:12:00,
2013-10-02 08:17:00,59.9,57.3,29.91,SW,225,4.6,4.6,91,0.00,BKN,,0.00,WeatherDisplay:10.37,2013-10-02 12:17:00,
2013-10-02 08:22:00,60.3,57.7,29.91,SW,225,3.5,3.5,91,0.00,BKN,,0.00,WeatherDisplay:10.37,2013-10-02 12:22:00,
2013-10-02 08:27:00,61.0,58.0,29.92,WSW,248,3.5,3.5,90,0.00,BKN,,0.00,WeatherDisplay:10.37,2013-10-02 12:27:00,
2013-10-02 08:32:00,61.5,58.2,29.92,SW,225,3.5,3.5,89,0.00,BKN,,0.00,WeatherDisplay:10.37,2013-10-02 12:32:00,
2013-10-02 08:37:00,61.9,58.3,29.92,West,270,5.8,5.8,88,0.00,BKN,,0.00,WeatherDisplay:10.37,2013-10-02 12:37:00,
2013-10-02 08:42:00,62.1,58.5,29.92,SW,225,4.6,4.6,88,0.00,BKN,,0.00,WeatherDisplay:10.37,2013-10-02 12:42:00,
2013-10-02 08:47:00,62.8,58.9,29.92,SW,225,5.8,5.8,87,0.00,BKN,,0.00,WeatherDisplay:10.37,2013-10-02 12:47:00,
2013-10-02 08:52:00,63.5,59.2,29.92,South,180,5.8,5.8,86,0.00,BKN,,0.00,WeatherDisplay:10.37,2013-10-02 12:52:00,
2013-10-02 08:57:00,63.7,59.4,29.92,South,180,5.8,5.8,86,0.00,BKN,,0.00,WeatherDisplay:10.37,2013-10-02 12:57:00,
2013-10-02 09:02:00,63.0,58.7,29.93,SSW,202,4.6,4.6,86,0.00,BKN,,0.00,WeatherDisplay:10.37,2013-10-02 13:02:00,
2013-10-02 09:07:00,63.1,58.8,29.93,SW,225,5.3,5.3,86,0.00,BKN,,0.00,WeatherDisplay:10.37,2013-10-02 13:07:00,
2013-10-02 09:12:00,63.1,58.8,29.92,SW,225,4.6,4.6,86,0.00,BKN,,0.00,WeatherDisplay:10.37,2013-10-02 13:12:00,
2013-10-02 09:17:00,63.5,59.2,29.92,SW,225,3.5,3.5,86,0.00,BKN,,0.00,WeatherDisplay:10.37,2013-10-02 13:17:00,
2013-10-02 09:22:00,63.3,59.4,29.93,SW,225,4.6,4.6,87,0.00,BKN,,0.00,WeatherDisplay:10.37,2013-10-02 13:22:00,
2013-10-02 09:27:00,63.7,59.8,29.93,WSW,248,5.3,5.3,87,0.00,BKN,,0.00,WeatherDisplay:10.37,2013-10-02 13:27:00,
2013-10-02 09:32:00,64.2,59.9,29.93,WSW,248,5.8,5.8,86,0.00,SCT,,0.00,WeatherDisplay:10.37,2013-10-02 13:32:00,
2013-10-02 09:37:00,64.0,59.7,29.93,SSW,202,4.6,4.6,86,0.00,SCT,,0.00,WeatherDisplay:10.37,2013-10-02 13:37:00,
2013-10-02 09:42:00,64.4,60.1,29.93,SW,225,4.2,4.2,86,0.00,SCT,,0.00,WeatherDisplay:10.37,2013-10-02 13:42:00,
2013-10-02 09:47:00,64.6,60.0,29.93,SW,225,3.7,3.7,85,0.00,SCT,,0.00,WeatherDisplay:10.37,2013-10-02 13:47:00,
2013-10-02 09:52:00,64.6,60.6,29.93,SW,225,4.2,4.2,87,0.00,SCT,,0.00,WeatherDisplay:10.37,2013-10-02 13:52:00,
2013-10-02 09:57:00,65.5,60.9,29.93,SW,225,4.6,4.6,85,0.00,SCT,,0.00,WeatherDisplay:10.37,2013-10-02 13:57:00,
2013-10-02 10:02:00,65.5,60.5,29.93,SW,225,5.8,5.8,84,0.00,CLR,,0.00,WeatherDisplay:10.37,2013-10-02 14:02:00,
2013-10-02 10:07:00,65.7,60.7,29.93,SSW,202,4.6,4.6,84,0.00,CLR,,0.00,WeatherDisplay:10.37,2013-10-02 14:07:00,
2013-10-02 10:12:00,65.8,60.8,29.93,South,180,3.5,3.5,84,0.00,CLR,,0.00,WeatherDisplay:10.37,2013-10-02 14:12:00,
2013-10-02 10:17:00,67.5,61.8,29.93,SW,225,3.7,3.7,82,0.00,CLR,,0.00,WeatherDisplay:10.37,2013-10-02 14:17:00,
2013-10-02 10:22:00,67.3,62.0,29.93,SSW,202,5.3,5.3,83,0.00,CLR,,0.00,WeatherDisplay:10.37,2013-10-02 14:22:00,
2013-10-02 10:27:00,67.8,61.8,29.93,WSW,248,4.2,4.2,81,0.00,CLR,,0.00,WeatherDisplay:10.37,2013-10-02 14:27:00,
2013-10-02 10:32:00,68.0,61.9,29.93,WSW,248,5.8,5.8,81,0.00,CLR,,0.00,WeatherDisplay:10.37,2013-10-02 14:32:00,
2013-10-02 10:37:00,68.0,62.3,29.93,SW,225,5.8,5.8,82,0.00,CLR,,0.00,WeatherDisplay:10.37,2013-10-02 14:37:00,
2013-10-02 10:42:00,68.4,62.3,29.93,SW,225,5.8,5.8,81,0.00,CLR,,0.00,WeatherDisplay:10.37,2013-10-02 14:42:00,
2013-10-02 10:47:00,68.5,62.4,29.93,WSW,248,5.8,5.8,81,0.00,CLR,,0.00,WeatherDisplay:10.37,2013-10-02 14:47:00,
2013-10-02 10:52:00,69.4,63.0,29.93,South,180,9.2,9.2,80,0.00,CLR,,0.00,WeatherDisplay:10.37,2013-10-02 14:52:00,
2013-10-02 10:57:00,70.2,63.4,29.93,WSW,248,6.3,6.3,79,0.00,CLR,,0.00,WeatherDisplay:10.37,2013-10-02 14:57:00,
2013-10-02 11:02:00,70.2,63.4,29.93,SSW,202,6.9,6.9,79,0.00,BKN,,0.00,WeatherDisplay:10.37,2013-10-02 15:02:00,
2013-10-02 11:07:00,70.7,63.5,29.93,WSW,248,6.9,6.9,78,0.00,BKN,,0.00,WeatherDisplay:10.37,2013-10-02 15:07:00,
2013-10-02 11:12:00,71.1,63.9,29.93,SW,225,6.9,6.9,78,0.00,BKN,,0.00,WeatherDisplay:10.37,2013-10-02 15:12:00,
2013-10-02 11:17:00,71.4,64.2,29.93,West,270,7.8,7.8,78,0.00,BKN,,0.00,WeatherDisplay:10.37,2013-10-02 15:17:00,
2013-10-02 11:22:00,71.1,64.3,29.93,SW,225,6.9,6.9,79,0.00,BKN,,0.00,WeatherDisplay:10.37,2013-10-02 15:22:00,
2013-10-02 11:27:00,70.9,63.7,29.93,West,270,9.2,9.2,78,0.00,BKN,,0.00,WeatherDisplay:10.37,2013-10-02 15:27:00,
2013-10-02 11:32:00,72.3,64.7,29.93,SW,225,6.8,6.8,77,0.00,BKN,,0.00,WeatherDisplay:10.37,2013-10-02 15:32:00,
2013-10-02 11:34:00,72.0,64.8,29.93,SSW,202,5.8,5.8,78,0.00,BKN,,0.00,WeatherDisplay:10.37,2013-10-02 15:34:00,
2013-10-02 11:39:00,72.5,65.2,29.93,SSW,202,8.1,8.1,78,0.00,BKN,,0.00,WeatherDisplay:10.37,2013-10-02 15:39:00,
2013-10-02 11:44:00,74.7,66.2,29.93,SSW,202,5.8,5.8,75,0.00,BKN,,0.00,WeatherDisplay:10.37,2013-10-02 15:44:00,
2013-10-02 11:49:00,73.0,65.0,29.92,SW,225,5.8,6.0,76,0.00,BKN,,0.00,WeatherDisplay:10.37,2013-10-02 15:49:00,
2013-10-02 11:54:00,74.1,65.7,29.92,SW,225,7.3,7.3,75,0.00,BKN,,0.00,WeatherDisplay:10.37,2013-10-02 15:54:00,
2013-10-02 11:59:00,74.8,66.0,29.93,SSW,202,8.1,8.1,74,0.00,BKN,,0.00,WeatherDisplay:10.37,2013-10-02 15:59:00,
2013-10-02 12:04:00,75.0,66.1,29.93,SW,225,6.9,6.9,74,0.00,FEW,,0.00,WeatherDisplay:10.37,2013-10-02 16:04:00,
2013-10-02 12:09:00,74.7,66.2,29.93,West,270,4.6,4.6,75,0.00,FEW,,0.00,WeatherDisplay:10.37,2013-10-02 16:09:00,
2013-10-02 12:14:00,74.8,66.0,29.93,West,270,5.8,5.8,74,0.00,FEW,,0.00,WeatherDisplay:10.37,2013-10-02 16:14:00,
2013-10-02 12:19:00,74.7,65.9,29.93,WSW,248,4.7,5.3,74,0.00,FEW,,0.00,WeatherDisplay:10.37,2013-10-02 16:19:00,
2013-10-02 12:24:00,74.3,65.9,29.93,West,270,5.8,5.8,75,0.00,FEW,,0.00,WeatherDisplay:10.37,2013-10-02 16:24:00,
2013-10-02 12:29:00,77.0,66.9,29.93,SSW,202,6.9,6.9,71,0.00,FEW,,0.00,WeatherDisplay:10.37,2013-10-02 16:29:00,
2013-10-02 12:34:00,77.2,67.1,29.93,SW,225,6.9,6.9,71,0.00,FEW,,0.00,WeatherDisplay:10.37,2013-10-02 16:34:00,
2013-10-02 12:39:00,75.9,66.6,29.92,WSW,248,4.6,4.6,73,0.00,FEW,,0.00,WeatherDisplay:10.37,2013-10-02 16:39:00,
2013-10-02 12:44:00,76.3,66.6,29.92,West,270,8.1,8.1,72,0.00,FEW,,0.00,WeatherDisplay:10.37,2013-10-02 16:44:00,
2013-10-02 12:49:00,77.9,66.9,29.92,SW,225,7.8,7.8,69,0.00,FEW,,0.00,WeatherDisplay:10.37,2013-10-02 16:49:00,
2013-10-02 12:54:00,75.7,65.6,29.92,West,270,7.8,7.8,71,0.00,FEW,,0.00,WeatherDisplay:10.37,2013-10-02 16:54:00,
2013-10-02 12:59:00,74.7,65.9,29.92,WSW,248,8.1,8.1,74,0.00,FEW,,0.00,WeatherDisplay:10.37,2013-10-02 16:59:00,
2013-10-02 13:04:00,76.1,66.4,29.92,SW,225,6.9,6.9,72,0.00,SCT,,0.00,WeatherDisplay:10.37,2013-10-02 17:04:00,
2013-10-02 13:09:00,75.9,65.8,29.92,WSW,248,7.3,7.3,71,0.00,SCT,,0.00,WeatherDisplay:10.37,2013-10-02 17:09:00,
2013-10-02 13:14:00,74.8,66.0,29.92,West,270,5.8,5.8,74,0.00,SCT,,0.00,WeatherDisplay:10.37,2013-10-02 17:14:00,
2013-10-02 13:19:00,75.6,65.9,29.92,WSW,248,6.3,6.3,72,0.00,SCT,,0.00,WeatherDisplay:10.37,2013-10-02 17:19:00,
2013-10-02 13:24:00,75.9,66.6,29.92,West,270,5.8,5.8,73,0.00,SCT,,0.00,WeatherDisplay:10.37,2013-10-02 17:24:00,
2013-10-02 13:29:00,76.5,66.8,29.92,WSW,248,4.6,4.6,72,0.00,SCT,,0.00,WeatherDisplay:10.37,2013-10-02 17:29:00,
2013-10-02 13:34:00,78.4,67.0,29.91,SW,225,4.6,4.6,68,0.00,SCT,,0.00,WeatherDisplay:10.37,2013-10-02 17:34:00,
2013-10-02 13:39:00,77.7,66.3,29.91,WSW,248,6.9,6.9,68,0.00,SCT,,0.00,WeatherDisplay:10.37,2013-10-02 17:39:00,
2013-10-02 13:44:00,76.6,66.1,29.91,SW,225,5.8,5.8,70,0.00,SCT,,0.00,WeatherDisplay:10.37,2013-10-02 17:44:00,
2013-10-02 13:49:00,76.1,65.6,29.91,West,270,8.1,8.1,70,0.00,SCT,,0.00,WeatherDisplay:10.37,2013-10-02 17:49:00,
2013-10-02 13:54:00,77.5,66.1,29.91,WSW,248,6.9,6.9,68,0.00,SCT,,0.00,WeatherDisplay:10.37,2013-10-02 17:54:00,
2013-10-02 13:59:00,77.0,66.0,29.90,SW,225,11.4,11.4,69,0.00,SCT,,0.00,WeatherDisplay:10.37,2013-10-02 17:59:00,
2013-10-02 14:04:00,77.9,66.5,29.90,WSW,248,10.4,10.4,68,0.00,SCT,,0.00,WeatherDisplay:10.37,2013-10-02 18:04:00,
2013-10-02 14:09:00,78.6,65.4,29.90,SW,225,16.1,16.1,64,0.00,SCT,,0.00,WeatherDisplay:10.37,2013-10-02 18:09:00,
2013-10-02 14:14:00,78.3,65.6,29.90,SW,225,10.4,10.4,65,0.00,SCT,,0.00,WeatherDisplay:10.37,2013-10-02 18:14:00,
2013-10-02 14:19:00,77.5,64.8,29.90,WSW,248,11.5,11.5,65,0.00,SCT,,0.00,WeatherDisplay:10.37,2013-10-02 18:19:00,
2013-10-02 14:24:00,79.7,66.0,29.89,WSW,248,6.9,6.9,63,0.00,SCT,,0.00,WeatherDisplay:10.37,2013-10-02 18:24:00,
2013-10-02 14:29:00,80.2,66.5,29.89,SW,225,10.4,10.4,63,0.00,SCT,,0.00,WeatherDisplay:10.37,2013-10-02 18:29:00,
2013-10-02 14:34:00,80.1,65.9,29.89,WSW,248,9.4,9.4,62,0.00,BKN,,0.00,WeatherDisplay:10.37,2013-10-02 18:34:00,
2013-10-02 14:39:00,79.3,65.6,29.89,WSW,248,8.1,8.1,63,0.00,BKN,,0.00,WeatherDisplay:10.37,2013-10-02 18:39:00,
2013-10-02 14:44:00,78.8,65.1,29.89,WSW,248,10.4,10.4,63,0.00,BKN,,0.00,WeatherDisplay:10.37,2013-10-02 18:44:00,
2013-10-02 14:49:00,79.2,65.5,29.89,SW,225,6.9,6.9,63,0.00,BKN,,0.00,WeatherDisplay:10.37,2013-10-02 18:49:00,
2013-10-02 14:54:00,78.6,64.9,29.89,West,270,8.1,8.1,63,0.00,BKN,,0.00,WeatherDisplay:10.37,2013-10-02 18:54:00,
2013-10-02 14:59:00,79.5,65.3,29.89,SW,225,5.3,5.3,62,0.00,BKN,,0.00,WeatherDisplay:10.37,2013-10-02 18:59:00,
2013-10-02 15:04:00,79.7,66.4,29.89,SW,225,9.2,9.2,64,0.00,BKN,,0.00,WeatherDisplay:10.37,2013-10-02 19:04:00,
2013-10-02 15:09:00,80.1,65.4,29.89,West,270,8.1,8.1,61,0.00,BKN,,0.00,WeatherDisplay:10.37,2013-10-02 19:09:00,
2013-10-02 15:14:00,78.8,64.7,29.89,SW,225,11.5,11.5,62,0.00,BKN,,0.00,WeatherDisplay:10.37,2013-10-02 19:14:00,
2013-10-02 15:19:00,79.5,65.3,29.89,West,270,6.9,6.9,62,0.00,BKN,,0.00,WeatherDisplay:10.37,2013-10-02 19:19:00,
2013-10-02 15:24:00,79.7,65.5,29.88,SW,225,6.9,6.9,62,0.00,BKN,,0.00,WeatherDisplay:10.37,2013-10-02 19:24:00,
2013-10-02 15:29:00,81.0,65.8,29.88,SW,225,8.1,8.1,60,0.00,BKN,,0.00,WeatherDisplay:10.37,2013-10-02 19:29:00,
2013-10-02 15:34:00,81.9,65.2,29.88,SW,225,9.2,9.2,57,0.00,SCT,,0.00,WeatherDisplay:10.37,2013-10-02 19:34:00,
2013-10-02 15:39:00,80.2,65.1,29.88,WSW,248,9.9,9.9,60,0.00,SCT,,0.00,WeatherDisplay:10.37,2013-10-02 19:39:00,
2013-10-02 15:44:00,79.7,65.1,29.88,West,270,8.1,8.1,61,0.00,SCT,,0.00,WeatherDisplay:10.37,2013-10-02 19:44:00,
2013-10-02 15:49:00,79.5,64.4,29.88,WSW,248,6.9,6.9,60,0.00,SCT,,0.00,WeatherDisplay:10.37,2013-10-02 19:49:00,
2013-10-02 15:54:00,79.0,65.3,29.88,WSW,248,8.1,8.1,63,0.00,SCT,,0.00,WeatherDisplay:10.37,2013-10-02 19:54:00,
2013-10-02 15:59:00,79.0,64.9,29.87,WSW,248,9.2,9.2,62,0.00,SCT,,0.00,WeatherDisplay:10.37,2013-10-02 19:59:00,
2013-10-02 16:04:00,79.0,64.9,29.87,SW,225,9.2,9.2,62,0.00,SCT,,0.00,WeatherDisplay:10.37,2013-10-02 20:04:00,
2013-10-02 16:09:00,82.2,66.4,29.87,West,270,5.3,5.3,59,0.00,SCT,,0.00,WeatherDisplay:10.37,2013-10-02 20:09:00,
2013-10-02 16:14:00,81.7,65.5,29.87,SSW,202,6.9,6.9,58,0.00,SCT,,0.00,WeatherDisplay:10.37,2013-10-02 20:14:00,
2013-10-02 16:19:00,80.1,65.0,29.87,SW,225,6.9,6.9,60,0.00,SCT,,0.00,WeatherDisplay:10.37,2013-10-02 20:19:00,
2013-10-02 16:24:00,79.2,64.1,29.87,WSW,248,8.3,8.6,60,0.00,SCT,,0.00,WeatherDisplay:10.37,2013-10-02 20:24:00,
2013-10-02 16:29:00,78.3,64.7,29.87,West,270,6.3,6.3,63,0.00,SCT,,0.00,WeatherDisplay:10.37,2013-10-02 20:29:00,
2013-10-02 16:34:00,78.6,64.5,29.87,WSW,248,6.9,6.9,62,0.00,SCT,,0.00,WeatherDisplay:10.37,2013-10-02 20:34:00,
2013-10-02 16:39:00,79.7,65.5,29.87,WSW,248,8.1,8.1,62,0.00,SCT,,0.00,WeatherDisplay:10.37,2013-10-02 20:39:00,
2013-10-02 16:44:00,78.8,65.1,29.87,WSW,248,6.8,6.8,63,0.00,SCT,,0.00,WeatherDisplay:10.37,2013-10-02 20:44:00,
2013-10-02 16:49:00,78.1,64.9,29.87,WSW,248,8.1,8.1,64,0.00,SCT,,0.00,WeatherDisplay:10.37,2013-10-02 20:49:00,
2013-10-02 16:54:00,78.3,64.7,29.87,SW,225,8.1,8.1,63,0.00,SCT,,0.00,WeatherDisplay:10.37,2013-10-02 20:54:00,
2013-10-02 16:59:00,78.3,65.1,29.87,West,270,6.9,6.9,64,0.00,SCT,,0.00,WeatherDisplay:10.37,2013-10-02 20:59:00,
2013-10-02 17:04:00,78.6,64.9,29.87,SW,225,4.6,4.6,63,0.00,BKN,,0.00,WeatherDisplay:10.37,2013-10-02 21:04:00,
2013-10-02 17:09:00,79.3,65.1,29.87,SW,225,8.1,8.1,62,0.00,BKN,,0.00,WeatherDisplay:10.37,2013-10-02 21:09:00,
2013-10-02 17:14:00,78.6,64.5,29.87,SW,225,7.8,7.8,62,0.00,BKN,,0.00,WeatherDisplay:10.37,2013-10-02 21:14:00,
2013-10-02 17:19:00,78.3,64.7,29.87,WSW,248,5.8,5.8,63,0.00,BKN,,0.00,WeatherDisplay:10.37,2013-10-02 21:19:00,
2013-10-02 17:24:00,78.3,64.7,29.87,SW,225,4.6,4.6,63,0.00,BKN,,0.00,WeatherDisplay:10.37,2013-10-02 21:24:00,
2013-10-02 17:29:00,78.6,64.9,29.87,SW,225,5.8,5.8,63,0.00,BKN,,0.00,WeatherDisplay:10.37,2013-10-02 21:29:00,
2013-10-02 17:34:00,78.4,65.2,29.87,SW,225,3.5,3.5,64,0.00,BKN,,0.00,WeatherDisplay:10.37,2013-10-02 21:34:00,
2013-10-02 17:39:00,78.4,65.2,29.87,West,270,5.8,5.8,64,0.00,BKN,,0.00,WeatherDisplay:10.37,2013-10-02 21:39:00,
2013-10-02 17:44:00,78.1,64.9,29.87,West,270,5.8,5.8,64,0.00,BKN,,0.00,WeatherDisplay:10.37,2013-10-02 21:44:00,
2013-10-02 17:49:00,78.1,64.9,29.87,WSW,248,5.8,5.8,64,0.00,BKN,,0.00,WeatherDisplay:10.37,2013-10-02 21:49:00,
2013-10-02 17:54:00,78.6,64.9,29.87,West,270,5.8,5.8,63,0.00,BKN,,0.00,WeatherDisplay:10.37,2013-10-02 21:54:00,
2013-10-02 17:59:00,79.0,65.8,29.87,West,270,3.7,3.9,64,0.00,BKN,,0.00,WeatherDisplay:10.37,2013-10-02 21:59:00,
2013-10-02 18:04:00,79.2,66.0,29.87,WSW,248,4.6,4.6,64,0.00,BKN,,0.00,WeatherDisplay:10.37,2013-10-02 22:04:00,
2013-10-02 18:09:00,78.8,65.6,29.87,WSW,248,5.8,5.8,64,0.00,BKN,,0.00,WeatherDisplay:10.37,2013-10-02 22:09:00,
2013-10-02 18:14:00,78.6,65.4,29.87,SW,225,5.8,5.8,64,0.00,BKN,,0.00,WeatherDisplay:10.37,2013-10-02 22:14:00,
2013-10-02 18:19:00,78.4,65.7,29.87,WSW,248,3.5,3.5,65,0.00,BKN,,0.00,WeatherDisplay:10.37,2013-10-02 22:19:00,
2013-10-02 18:24:00,78.3,65.6,29.87,SW,225,3.5,3.5,65,0.00,BKN,,0.00,WeatherDisplay:10.37,2013-10-02 22:24:00,
2013-10-02 18:29:00,78.3,65.1,29.87,WSW,248,5.8,5.8,64,0.00,BKN,,0.00,WeatherDisplay:10.37,2013-10-02 22:29:00,
2013-10-02 18:34:00,78.1,65.8,29.88,SW,225,3.5,3.5,66,0.00,BKN,,0.00,WeatherDisplay:10.37,2013-10-02 22:34:00,
2013-10-02 18:39:00,78.1,65.4,29.88,SW,225,4.6,4.6,65,0.00,BKN,,0.00,WeatherDisplay:10.37,2013-10-02 22:39:00,
2013-10-02 18:44:00,77.5,64.8,29.88,WSW,248,4.6,4.6,65,0.00,BKN,,0.00,WeatherDisplay:10.37,2013-10-02 22:44:00,
2013-10-02 18:49:00,77.0,65.2,29.87,SW,225,3.5,3.5,67,0.00,BKN,,0.00,WeatherDisplay:10.37,2013-10-02 22:49:00,
2013-10-02 18:54:00,76.1,64.8,29.87,SW,225,4.6,4.6,68,0.00,BKN,,0.00,WeatherDisplay:10.37,2013-10-02 22:54:00,
2013-10-02 18:59:00,75.6,64.7,29.88,SW,225,5.8,5.8,69,0.00,BKN,,0.00,WeatherDisplay:10.37,2013-10-02 22:59:00,
2013-10-02 19:04:00,74.8,64.4,29.88,SSW,202,3.7,3.7,70,0.00,CLR,,0.00,WeatherDisplay:10.37,2013-10-02 23:04:00,
2013-10-02 19:09:00,74.5,64.5,29.88,SSW,202,3.7,3.7,71,0.00,CLR,,0.00,WeatherDisplay:10.37,2013-10-02 23:09:00,
2013-10-02 19:14:00,74.3,64.7,29.88,SW,225,4.6,4.6,72,0.00,CLR,,0.00,WeatherDisplay:10.37,2013-10-02 23:14:00,
2013-10-02 19:19:00,73.9,64.3,29.88,SW,225,3.5,3.5,72,0.00,CLR,,0.00,WeatherDisplay:10.37,2013-10-02 23:19:00,
2013-10-02 19:24:00,73.6,64.4,29.88,SW,225,2.7,2.7,73,0.00,CLR,,0.00,WeatherDisplay:10.37,2013-10-02 23:24:00,
2013-10-02 19:29:00,73.0,64.2,29.88,SW,225,2.7,2.7,74,0.00,CLR,,0.00,WeatherDisplay:10.37,2013-10-02 23:29:00,
2013-10-02 19:34:00,72.7,64.3,29.88,SW,225,3.5,3.5,75,0.00,CLR,,0.00,WeatherDisplay:10.37,2013-10-02 23:34:00,
2013-10-02 19:39:00,72.5,64.1,29.88,SW,225,2.3,2.3,75,0.00,CLR,,0.00,WeatherDisplay:10.37,2013-10-02 23:39:00,
2013-10-02 19:44:00,72.3,63.9,29.88,WSW,248,2.3,2.3,75,0.00,CLR,,0.00,WeatherDisplay:10.37,2013-10-02 23:44:00,
2013-10-02 19:49:00,72.0,64.0,29.88,SW,225,0.0,0.0,76,0.00,CLR,,0.00,WeatherDisplay:10.37,2013-10-02 23:49:00,
2013-10-02 19:51:00,71.8,63.8,29.88,SSW,202,0.0,0.0,76,0.00,CLR,,0.00,WeatherDisplay:10.37,2013-10-02 23:51:00,
2013-10-02 19:56:00,71.4,63.8,29.88,SW,225,0.0,0.0,77,0.00,CLR,,0.00,WeatherDisplay:10.37,2013-10-02 23:56:00,
2013-10-02 20:01:00,71.1,63.9,29.88,WSW,248,0.0,0.0,78,0.00,CLR,,0.00,WeatherDisplay:10.37,2013-10-03 00:01:00,
2013-10-02 20:06:00,70.7,63.5,29.88,SW,225,0.0,0.0,78,0.00,CLR,,0.00,WeatherDisplay:10.37,2013-10-03 00:06:00,
2013-10-02 20:11:00,70.3,63.5,29.89,SW,225,0.0,0.0,79,0.00,CLR,,0.00,WeatherDisplay:10.37,2013-10-03 00:11:00,
2013-10-02 20:16:00,70.0,63.5,29.89,WSW,248,0.0,0.0,80,0.00,CLR,,0.00,WeatherDisplay:10.37,2013-10-03 00:16:00,
2013-10-02 20:21:00,69.6,63.2,29.89,SW,225,0.0,0.0,80,0.00,CLR,,0.00,WeatherDisplay:10.37,2013-10-03 00:21:00,
2013-10-02 20:26:00,69.3,63.2,29.89,WSW,248,0.0,0.0,81,0.00,CLR,,0.00,WeatherDisplay:10.37,2013-10-03 00:26:00,
2013-10-02 20:31:00,69.1,63.0,29.89,SW,225,0.0,0.0,81,0.00,CLR,,0.00,WeatherDisplay:10.37,2013-10-03 00:31:00,
2013-10-02 20:36:00,68.7,63.0,29.89,WSW,248,0.0,0.0,82,0.00,CLR,,0.00,WeatherDisplay:10.37,2013-10-03 00:36:00,
2013-10-02 20:41:00,68.4,62.7,29.89,West,270,0.0,0.0,82,0.00,CLR,,0.00,WeatherDisplay:10.37,2013-10-03 00:41:00,
2013-10-02 20:46:00,68.4,63.0,29.89,West,270,0.0,0.0,83,0.00,CLR,,0.00,WeatherDisplay:10.37,2013-10-03 00:46:00,
2013-10-02 20:51:00,68.0,62.6,29.89,SSW,202,0.0,0.0,83,0.00,CLR,,0.00,WeatherDisplay:10.37,2013-10-03 00:51:00,
2013-10-02 20:56:00,67.6,62.3,29.89,SSW,202,0.0,0.0,83,0.00,CLR,,0.00,WeatherDisplay:10.37,2013-10-03 00:56:00,
2013-10-02 21:01:00,67.6,62.6,29.90,West,270,0.0,0.0,84,0.00,CLR,,0.00,WeatherDisplay:10.37,2013-10-03 01:01:00,
2013-10-02 21:06:00,67.3,62.3,29.90,WSW,248,0.0,0.0,84,0.00,CLR,,0.00,WeatherDisplay:10.37,2013-10-03 01:06:00,
2013-10-02 21:11:00,67.1,62.1,29.89,SW,225,0.0,0.0,84,0.00,CLR,,0.00,WeatherDisplay:10.37,2013-10-03 01:11:00,
2013-10-02 21:16:00,66.7,61.7,29.89,West,270,0.0,0.0,84,0.00,CLR,,0.00,WeatherDisplay:10.37,2013-10-03 01:16:00,
2013-10-02 21:21:00,66.6,61.9,29.89,WSW,248,0.0,0.0,85,0.00,CLR,,0.00,WeatherDisplay:10.37,2013-10-03 01:21:00,
2013-10-02 21:26:00,66.4,61.8,29.90,WSW,248,0.0,0.0,85,0.00,CLR,,0.00,WeatherDisplay:10.37,2013-10-03 01:26:00,
2013-10-02 21:31:00,66.2,61.6,29.90,WSW,248,0.0,0.0,85,0.00,CLR,,0.00,WeatherDisplay:10.37,2013-10-03 01:31:00,
2013-10-02 21:36:00,66.0,61.4,29.90,SW,225,0.0,0.0,85,0.00,CLR,,0.00,WeatherDisplay:10.37,2013-10-03 01:36:00,
2013-10-02 21:41:00,66.0,61.4,29.90,SW,225,0.0,0.0,85,0.00,CLR,,0.00,WeatherDisplay:10.37,2013-10-03 01:41:00,
2013-10-02 21:46:00,65.7,61.4,29.90,West,270,0.0,0.0,86,0.00,CLR,,0.00,WeatherDisplay:10.37,2013-10-03 01:46:00,
2013-10-02 21:51:00,65.5,61.2,29.90,WNW,292,0.0,0.0,86,0.00,CLR,,0.00,WeatherDisplay:10.37,2013-10-03 01:51:00,
2013-10-02 21:56:00,65.5,61.2,29.90,WSW,248,0.0,0.0,86,0.00,CLR,,0.00,WeatherDisplay:10.37,2013-10-03 01:56:00,
2013-10-02 22:01:00,65.3,61.3,29.90,West,270,0.0,0.0,87,0.00,CLR,,0.00,WeatherDisplay:10.37,2013-10-03 02:01:00,
2013-10-02 22:06:00,65.1,61.1,29.90,SW,225,0.0,0.0,87,0.00,CLR,,0.00,WeatherDisplay:10.37,2013-10-03 02:06:00,
2013-10-02 22:11:00,65.3,61.3,29.90,SW,225,0.0,0.0,87,0.00,CLR,,0.00,WeatherDisplay:10.37,2013-10-03 02:11:00,
2013-10-02 22:16:00,65.1,61.1,29.90,West,270,0.0,0.0,87,0.00,CLR,,0.00,WeatherDisplay:10.37,2013-10-03 02:16:00,
2013-10-02 22:21:00,64.9,60.9,29.90,West,270,0.0,0.0,87,0.00,CLR,,0.00,WeatherDisplay:10.37,2013-10-03 02:21:00,
2013-10-02 22:26:00,64.9,61.3,29.90,West,270,0.0,0.0,88,0.00,CLR,,0.00,WeatherDisplay:10.37,2013-10-03 02:26:00,
2013-10-02 22:31:00,64.8,61.2,29.90,West,270,0.0,0.0,88,0.00,CLR,,0.00,WeatherDisplay:10.37,2013-10-03 02:31:00,
2013-10-02 22:36:00,64.6,61.0,29.90,WSW,248,0.0,0.0,88,0.00,CLR,,0.00,WeatherDisplay:10.37,2013-10-03 02:36:00,
2013-10-02 22:41:00,64.6,61.3,29.90,WSW,248,0.0,0.0,89,0.00,CLR,,0.00,WeatherDisplay:10.37,2013-10-03 02:41:00,
2013-10-02 22:46:00,64.4,61.1,29.90,WSW,248,0.0,0.0,89,0.00,CLR,,0.00,WeatherDisplay:10.37,2013-10-03 02:46:00,
2013-10-02 22:51:00,64.2,60.9,29.91,WSW,248,0.0,0.0,89,0.00,CLR,,0.00,WeatherDisplay:10.37,2013-10-03 02:51:00,
2013-10-02 22:56:00,64.2,61.2,29.91,West,270,0.0,0.0,90,0.00,CLR,,0.00,WeatherDisplay:10.37,2013-10-03 02:56:00,
2013-10-02 23:01:00,64.0,61.0,29.91,West,270,0.0,0.0,90,0.00,CLR,,0.00,WeatherDisplay:10.37,2013-10-03 03:01:00,
2013-10-02 23:06:00,64.9,61.6,29.91,East,90,0.0,0.0,89,0.00,CLR,,0.00,WeatherDisplay:10.37,2013-10-03 03:06:00,
2013-10-02 23:11:00,64.6,61.3,29.91,ENE,68,1.1,1.1,89,0.00,CLR,,0.00,WeatherDisplay:10.37,2013-10-03 03:11:00,
2013-10-02 23:16:00,65.1,61.5,29.91,West,270,0.0,0.0,88,0.00,CLR,,0.00,WeatherDisplay:10.37,2013-10-03 03:16:00,
2013-10-02 23:21:00,64.8,61.2,29.91,SW,225,0.0,0.0,88,0.00,CLR,,0.00,WeatherDisplay:10.37,2013-10-03 03:21:00,
2013-10-02 23:26:00,64.6,61.3,29.91,SW,225,0.0,0.0,89,0.00,CLR,,0.00,WeatherDisplay:10.37,2013-10-03 03:26:00,
2013-10-02 23:31:00,64.4,61.1,29.91,SSW,202,0.0,0.0,89,0.00,CLR,,0.00,WeatherDisplay:10.37,2013-10-03 03:31:00,
2013-10-02 23:36:00,64.4,61.1,29.91,SSW,202,0.0,0.0,89,0.00,CLR,,0.00,WeatherDisplay:10.37,2013-10-03 03:36:00,
2013-10-02 23:41:00,64.0,60.7,29.91,West,270,0.0,0.0,89,0.00,CLR,,0.00,WeatherDisplay:10.37,2013-10-03 03:41:00,
2013-10-02 23:46:00,63.7,60.7,29.91,SW,225,0.0,0.0,90,0.00,CLR,,0.00,WeatherDisplay:10.37,2013-10-03 03:46:00,
2013-10-02 23:51:00,63.5,60.5,29.91,SW,225,0.0,0.0,90,0.00,CLR,,0.00,WeatherDisplay:10.37,2013-10-03 03:51:00,
2013-10-02 23:56:00,63.3,60.6,29.91,WSW,248,0.0,0.0,91,0.00,CLR,,0.00,WeatherDisplay:10.37,2013-10-03 03:56:00,